ANA18R RJTT-RJOO
Flight info
| Callsign | ANA18R |
|---|---|
| Flight time | 0h 52m |
| Altitude | 32000 |
| Route | LAXAS Y56 TOHME Y54 KOHWA Y546 AGPUK MIRAI ABENO IKOMA |
| Aircraft | A321/M-SDE3FGHIRWY/LB1 |
Departure
| Time | 2026-05-04 07:50 |
|---|---|
| Airport | Tokyo Haneda International Airport (RJTT) |
Arrival
| Time | 2026-05-04 08:42 |
|---|---|
| Airport | Osaka Itami International Airport (RJOO) |
| Time | Latitude | Longitude | Altitude | Speed | Heading |
|---|---|---|---|---|---|
| 2026-05-04 07:20 | 35.55822 | 139.77633 | 24 ft | 0 kts | 58° |
| 2026-05-04 07:41 | 35.55815 | 139.77617 | 24 ft | 4 kts | 59° |
| 2026-05-04 07:41 | 35.55801 | 139.77589 | 3 ft | 4 kts | 60° |
| 2026-05-04 07:42 | 35.55787 | 139.77560 | 27 ft | 4 kts | 61° |
| 2026-05-04 07:42 | 35.55774 | 139.77531 | 27 ft | 4 kts | 61° |
| 2026-05-04 07:42 | 35.55762 | 139.77504 | 28 ft | 2 kts | 60° |
| 2026-05-04 07:42 | 35.55747 | 139.77482 | 27 ft | 4 kts | 19° |
| 2026-05-04 07:43 | 35.55724 | 139.77484 | 26 ft | 4 kts | 333° |
| 2026-05-04 07:43 | 35.55714 | 139.77490 | 28 ft | 1 kts | 332° |
| 2026-05-04 07:43 | 35.55713 | 139.77491 | 28 ft | 0 kts | 332° |
| 2026-05-04 07:45 | 35.55714 | 139.77490 | 28 ft | 0 kts | 332° |
| 2026-05-04 07:46 | 35.55752 | 139.77465 | 28 ft | 14 kts | 331° |
| 2026-05-04 07:46 | 35.55857 | 139.77389 | 23 ft | 18 kts | 330° |
| 2026-05-04 07:46 | 35.55967 | 139.77330 | 24 ft | 17 kts | 359° |
| 2026-05-04 07:46 | 35.56064 | 139.77394 | 23 ft | 16 kts | 34° |
| 2026-05-04 07:47 | 35.56174 | 139.77488 | 25 ft | 22 kts | 35° |
| 2026-05-04 07:47 | 35.56297 | 139.77593 | 23 ft | 21 kts | 35° |
| 2026-05-04 07:47 | 35.56376 | 139.77733 | 23 ft | 19 kts | 59° |
| 2026-05-04 07:49 | 35.56417 | 139.77423 | 27 ft | 78 kts | 215° |
| 2026-05-04 07:49 | 35.55823 | 139.76916 | 28 ft | 128 kts | 214° |
| 2026-05-04 07:49 | 35.55062 | 139.76262 | 486 ft | 133 kts | 215° |
| 2026-05-04 07:50 | 35.54523 | 139.75884 | 874 ft | 134 kts | 199° |
| 2026-05-04 07:50 | 35.53569 | 139.75876 | 1496 ft | 139 kts | 185° |
| 2026-05-04 07:50 | 35.52577 | 139.75918 | 2007 ft | 150 kts | 187° |
| 2026-05-04 07:50 | 35.51462 | 139.75944 | 2306 ft | 171 kts | 187° |
| 2026-05-04 07:51 | 35.50215 | 139.75972 | 2477 ft | 191 kts | 186° |
| 2026-05-04 07:51 | 35.48786 | 139.76007 | 2605 ft | 216 kts | 185° |
| 2026-05-04 07:51 | 35.47187 | 139.76044 | 2921 ft | 242 kts | 185° |
| 2026-05-04 07:51 | 35.45484 | 139.76088 | 3574 ft | 253 kts | 187° |
| 2026-05-04 07:52 | 35.43697 | 139.76131 | 4331 ft | 261 kts | 187° |
| 2026-05-04 07:52 | 35.41848 | 139.76149 | 4993 ft | 270 kts | 187° |
| 2026-05-04 07:52 | 35.39943 | 139.76158 | 5790 ft | 276 kts | 186° |
| 2026-05-04 07:52 | 35.38012 | 139.76164 | 6597 ft | 279 kts | 187° |
| 2026-05-04 07:53 | 35.36064 | 139.76173 | 7467 ft | 280 kts | 186° |
| 2026-05-04 07:54 | 35.21616 | 139.79738 | 11987 ft | 309 kts | 201° |
| 2026-05-04 07:55 | 35.19611 | 139.78957 | 12751 ft | 299 kts | 213° |
| 2026-05-04 07:55 | 35.17862 | 139.77643 | 13500 ft | 292 kts | 224° |
| 2026-05-04 07:55 | 35.16440 | 139.75943 | 14157 ft | 289 kts | 231° |
| 2026-05-04 07:55 | 35.15082 | 139.74122 | 14807 ft | 291 kts | 231° |
| 2026-05-04 07:56 | 35.13710 | 139.72299 | 15470 ft | 292 kts | 230° |
| 2026-05-04 07:56 | 35.12332 | 139.70474 | 16088 ft | 294 kts | 230° |
| 2026-05-04 07:56 | 35.11043 | 139.68541 | 16680 ft | 294 kts | 238° |
| 2026-05-04 07:56 | 35.10162 | 139.66276 | 17234 ft | 298 kts | 250° |
| 2026-05-04 07:57 | 35.09697 | 139.63791 | 17818 ft | 302 kts | 255° |
| 2026-05-04 07:57 | 35.09291 | 139.61268 | 18300 ft | 304 kts | 255° |
| 2026-05-04 07:57 | 35.08872 | 139.58720 | 18766 ft | 306 kts | 254° |
| 2026-05-04 07:57 | 35.08447 | 139.56158 | 19235 ft | 308 kts | 254° |
| 2026-05-04 07:58 | 35.08020 | 139.53588 | 19699 ft | 310 kts | 254° |
| 2026-05-04 07:58 | 35.07590 | 139.50993 | 20173 ft | 313 kts | 254° |
| 2026-05-04 07:58 | 35.07158 | 139.48384 | 20621 ft | 315 kts | 254° |
| 2026-05-04 07:58 | 35.06723 | 139.45754 | 21068 ft | 317 kts | 254° |
| 2026-05-04 07:59 | 35.06285 | 139.43100 | 21516 ft | 320 kts | 254° |
| 2026-05-04 07:59 | 35.05844 | 139.40430 | 21955 ft | 322 kts | 254° |
| 2026-05-04 07:59 | 35.05396 | 139.37741 | 22384 ft | 324 kts | 254° |
| 2026-05-04 07:59 | 35.04946 | 139.35037 | 22801 ft | 326 kts | 254° |
| 2026-05-04 08:00 | 35.04497 | 139.32347 | 23217 ft | 329 kts | 254° |
| 2026-05-04 08:00 | 35.04038 | 139.29608 | 23562 ft | 331 kts | 254° |
| 2026-05-04 08:00 | 35.03576 | 139.26846 | 23904 ft | 333 kts | 254° |
| 2026-05-04 08:02 | 35.00233 | 139.07003 | 26302 ft | 348 kts | 253° |
| 2026-05-04 08:02 | 34.99741 | 139.04103 | 26626 ft | 350 kts | 253° |
| 2026-05-04 08:02 | 34.99246 | 139.01185 | 26939 ft | 352 kts | 253° |
| 2026-05-04 08:03 | 34.98789 | 138.98233 | 27273 ft | 357 kts | 258° |
| 2026-05-04 08:03 | 34.98612 | 138.95186 | 27595 ft | 362 kts | 260° |
| 2026-05-04 08:03 | 34.98456 | 138.92113 | 27879 ft | 364 kts | 260° |
| 2026-05-04 08:03 | 34.98298 | 138.89025 | 28172 ft | 366 kts | 259° |
| 2026-05-04 08:04 | 34.98137 | 138.85920 | 28464 ft | 367 kts | 260° |
| 2026-05-04 08:04 | 34.97974 | 138.82804 | 28734 ft | 369 kts | 260° |
| 2026-05-04 08:04 | 34.97810 | 138.79672 | 29060 ft | 371 kts | 260° |
| 2026-05-04 08:04 | 34.97643 | 138.76528 | 29389 ft | 373 kts | 259° |
| 2026-05-04 08:05 | 34.97475 | 138.73363 | 29688 ft | 375 kts | 259° |
| 2026-05-04 08:05 | 34.97305 | 138.70184 | 29930 ft | 377 kts | 259° |
| 2026-05-04 08:05 | 34.97134 | 138.67008 | 30248 ft | 376 kts | 259° |
| 2026-05-04 08:05 | 34.96962 | 138.63831 | 30655 ft | 374 kts | 259° |
| 2026-05-04 08:06 | 34.96792 | 138.60673 | 31045 ft | 372 kts | 259° |
| 2026-05-04 08:06 | 34.96621 | 138.57539 | 31435 ft | 370 kts | 259° |
| 2026-05-04 08:06 | 34.96449 | 138.54408 | 31645 ft | 370 kts | 259° |
| 2026-05-04 08:06 | 34.96284 | 138.51358 | 31683 ft | 359 kts | 259° |
| 2026-05-04 08:08 | 34.94953 | 138.27649 | 31705 ft | 350 kts | 258° |
| 2026-05-04 08:11 | 34.93407 | 138.01151 | 31727 ft | 348 kts | 258° |
| 2026-05-04 08:11 | 34.92887 | 137.92371 | 31738 ft | 346 kts | 258° |
| 2026-05-04 08:12 | 34.92534 | 137.86523 | 31758 ft | 346 kts | 258° |
| 2026-05-04 08:12 | 34.92174 | 137.80667 | 31770 ft | 347 kts | 258° |
| 2026-05-04 08:13 | 34.91816 | 137.74827 | 31794 ft | 346 kts | 258° |
| 2026-05-04 08:13 | 34.91454 | 137.68982 | 31792 ft | 344 kts | 256° |
| 2026-05-04 08:14 | 34.90162 | 137.63501 | 31799 ft | 335 kts | 246° |
| 2026-05-04 08:16 | 34.83803 | 137.42197 | 31806 ft | 335 kts | 246° |
| 2026-05-04 08:16 | 34.83039 | 137.39509 | 31704 ft | 336 kts | 246° |
| 2026-05-04 08:16 | 34.82279 | 137.36827 | 31479 ft | 335 kts | 247° |
| 2026-05-04 08:17 | 34.81516 | 137.34145 | 31242 ft | 335 kts | 246° |
| 2026-05-04 08:17 | 34.80752 | 137.31467 | 31004 ft | 336 kts | 246° |
| 2026-05-04 08:17 | 34.79984 | 137.28776 | 30767 ft | 336 kts | 246° |
| 2026-05-04 08:17 | 34.79217 | 137.26089 | 30534 ft | 337 kts | 246° |
| 2026-05-04 08:19 | 34.73782 | 137.07242 | 28824 ft | 332 kts | 247° |
| 2026-05-04 08:19 | 34.73031 | 137.04629 | 28453 ft | 323 kts | 247° |
| 2026-05-04 08:20 | 34.72295 | 137.02082 | 28021 ft | 316 kts | 247° |
| 2026-05-04 08:20 | 34.71583 | 136.99621 | 27618 ft | 309 kts | 247° |
| 2026-05-04 08:20 | 34.70875 | 136.97174 | 27159 ft | 304 kts | 247° |
| 2026-05-04 08:20 | 34.70171 | 136.94761 | 26608 ft | 302 kts | 247° |
| 2026-05-04 08:21 | 34.69473 | 136.92371 | 26091 ft | 299 kts | 248° |
| 2026-05-04 08:21 | 34.68780 | 136.90005 | 25578 ft | 296 kts | 248° |
| 2026-05-04 08:21 | 34.68093 | 136.87662 | 25080 ft | 293 kts | 248° |
| 2026-05-04 08:21 | 34.67414 | 136.85342 | 24603 ft | 290 kts | 248° |
| 2026-05-04 08:22 | 34.66743 | 136.83042 | 24101 ft | 287 kts | 248° |
| 2026-05-04 08:22 | 34.66080 | 136.80769 | 23638 ft | 284 kts | 248° |
| 2026-05-04 08:24 | 34.61606 | 136.65490 | 20695 ft | 271 kts | 249° |
| 2026-05-04 08:24 | 34.60976 | 136.63339 | 20303 ft | 271 kts | 249° |
| 2026-05-04 08:24 | 34.60344 | 136.61185 | 19888 ft | 270 kts | 249° |
| 2026-05-04 08:24 | 34.59712 | 136.59037 | 19487 ft | 270 kts | 249° |
| 2026-05-04 08:25 | 34.59079 | 136.56890 | 19078 ft | 270 kts | 249° |
| 2026-05-04 08:25 | 34.58444 | 136.54733 | 18662 ft | 272 kts | 249° |
| 2026-05-04 08:25 | 34.57805 | 136.52565 | 18235 ft | 273 kts | 250° |
| 2026-05-04 08:25 | 34.57164 | 136.50396 | 17776 ft | 273 kts | 250° |
| 2026-05-04 08:26 | 34.56522 | 136.48234 | 17339 ft | 272 kts | 250° |
| 2026-05-04 08:27 | 34.52124 | 136.33386 | 14480 ft | 264 kts | 250° |
| 2026-05-04 08:28 | 34.51589 | 136.31263 | 14093 ft | 264 kts | 257° |
| 2026-05-04 08:28 | 34.51299 | 136.29070 | 13693 ft | 262 kts | 259° |
| 2026-05-04 08:28 | 34.51019 | 136.26889 | 13271 ft | 261 kts | 259° |
| 2026-05-04 08:28 | 34.50737 | 136.24722 | 12967 ft | 261 kts | 259° |
| 2026-05-04 08:29 | 34.50453 | 136.22547 | 12576 ft | 261 kts | 260° |
| 2026-05-04 08:29 | 34.50166 | 136.20373 | 12183 ft | 262 kts | 260° |
| 2026-05-04 08:29 | 34.49880 | 136.18186 | 11774 ft | 263 kts | 261° |
| 2026-05-04 08:31 | 34.49924 | 136.03304 | 10151 ft | 251 kts | 288° |
| 2026-05-04 08:33 | 34.53893 | 135.89184 | 7585 ft | 253 kts | 289° |
| 2026-05-04 08:33 | 34.54457 | 135.87167 | 7227 ft | 252 kts | 289° |
| 2026-05-04 08:35 | 34.58141 | 135.73841 | 4113 ft | 259 kts | 289° |
| 2026-05-04 08:35 | 34.58702 | 135.71805 | 3882 ft | 249 kts | 289° |
| 2026-05-04 08:35 | 34.59238 | 135.69861 | 3749 ft | 236 kts | 289° |
| 2026-05-04 08:35 | 34.59744 | 135.68027 | 3643 ft | 223 kts | 289° |
| 2026-05-04 08:37 | 34.64552 | 135.60492 | 3433 ft | 179 kts | 314° |
| 2026-05-04 08:37 | 34.65435 | 135.59427 | 3246 ft | 179 kts | 314° |
| 2026-05-04 08:37 | 34.66313 | 135.58369 | 3026 ft | 177 kts | 314° |
| 2026-05-04 08:38 | 34.67177 | 135.57326 | 2780 ft | 169 kts | 314° |
| 2026-05-04 08:38 | 34.67965 | 135.56377 | 2595 ft | 149 kts | 313° |
| 2026-05-04 08:38 | 34.68668 | 135.55529 | 2389 ft | 139 kts | 314° |
| 2026-05-04 08:40 | 34.73210 | 135.50041 | 1131 ft | 131 kts | 314° |
| 2026-05-04 08:40 | 34.73846 | 135.49271 | 967 ft | 128 kts | 313° |
| 2026-05-04 08:40 | 34.74486 | 135.48497 | 799 ft | 131 kts | 315° |
| 2026-05-04 08:41 | 34.75131 | 135.47714 | 663 ft | 130 kts | 314° |
| 2026-05-04 08:41 | 34.75766 | 135.46925 | 499 ft | 129 kts | 316° |
| 2026-05-04 08:41 | 34.76404 | 135.46156 | 284 ft | 128 kts | 319° |
| 2026-05-04 08:41 | 34.77043 | 135.45395 | 148 ft | 129 kts | 319° |
| 2026-05-04 08:42 | 34.77672 | 135.44652 | 49 ft | 118 kts | 314° |
| 2026-05-04 08:42 | 34.78090 | 135.44131 | 48 ft | 44 kts | 315° |
| 2026-05-04 08:42 | 34.78253 | 135.43937 | 45 ft | 25 kts | 315° |
| 2026-05-04 08:42 | 34.78360 | 135.43815 | 44 ft | 22 kts | 320° |
| 2026-05-04 08:43 | 34.78497 | 135.43731 | 45 ft | 22 kts | 340° |
| 2026-05-04 08:43 | 34.78644 | 135.43692 | 48 ft | 21 kts | 0° |
| 2026-05-04 08:43 | 34.78769 | 135.43760 | 44 ft | 20 kts | 43° |
| 2026-05-04 08:43 | 34.78851 | 135.43861 | 48 ft | 13 kts | 44° |
| 2026-05-04 08:44 | 34.78908 | 135.43939 | 50 ft | 12 kts | 56° |
| 2026-05-04 08:44 | 34.78944 | 135.44030 | 49 ft | 12 kts | 67° |